Time;durP1;ratioP1;P1;durP2;ratioP2;P2;SDS_P1;SDS_P2;PMS_P1;PMS_P2;Temp;Humidity;BMP_temperature;BMP_pressure;BME280_temperature;BME280_humidity;BME280_pressure;Samples;Min_cycle;Max_cycle;Signal;HPM_P1;HPM_P2
2022/11/28 00:00:53;;;;;;;8.27;4.65;;;;;;;1.33;73.00;94354.66;5094152;28;20048;-76
2022/11/28 00:03:21;;;;;;;6.60;4.63;;;;;;;1.38;73.14;94376.50;5095193;28;20028;-77
2022/11/28 00:05:46;;;;;;;8.82;4.90;;;;;;;1.30;72.99;94382.16;5094770;28;20031;-75
2022/11/28 00:08:12;;;;;;;13.50;6.10;;;;;;;1.06;74.00;94380.78;5093830;28;20012;-76
2022/11/28 00:10:39;;;;;;;9.02;5.40;;;;;;;1.02;74.18;94364.75;5097014;28;20062;-76
2022/11/28 00:13:04;;;;;;;9.68;5.57;;;;;;;1.10;74.14;94387.13;5095869;28;20036;-76
2022/11/28 00:15:30;;;;;;;8.85;6.15;;;;;;;0.94;74.09;94361.72;5096751;28;20011;-75
2022/11/28 00:17:55;;;;;;;9.02;6.03;;;;;;;0.98;74.73;94387.22;5096996;28;20027;-75
2022/11/28 00:20:20;;;;;;;8.70;5.38;;;;;;;0.76;74.90;94355.72;5097018;28;20044;-76
2022/11/28 00:22:46;;;;;;;11.98;6.50;;;;;;;0.99;74.57;94354.72;5093829;28;20051;-76
2022/11/28 00:25:11;;;;;;;12.57;7.07;;;;;;;0.91;74.18;94354.34;5097577;28;20021;-76
2022/11/28 00:27:37;;;;;;;10.50;6.38;;;;;;;1.24;73.94;94388.34;5096618;28;20036;-77
2022/11/28 00:30:03;;;;;;;10.77;6.38;;;;;;;1.17;73.95;94366.78;5092991;28;20093;-77
2022/11/28 00:32:28;;;;;;;13.70;7.65;;;;;;;1.01;73.79;94368.41;5092774;28;20052;-76
2022/11/28 00:34:53;;;;;;;14.43;8.68;;;;;;;1.07;73.84;94372.69;5085604;28;20043;-75
2022/11/28 00:37:19;;;;;;;11.98;6.43;;;;;;;1.15;73.68;94389.81;5089395;28;20039;-76
2022/11/28 00:39:44;;;;;;;15.70;9.25;;;;;;;1.12;73.30;94364.91;5091833;28;20050;-77
2022/11/28 00:42:09;;;;;;;11.43;7.25;;;;;;;0.95;74.43;94385.06;5097372;28;20039;-75
2022/11/28 00:44:35;;;;;;;13.55;7.82;;;;;;;0.87;74.67;94363.72;5096140;28;20016;-75
2022/11/28 00:47:00;;;;;;;11.35;7.38;;;;;;;1.00;74.45;94379.09;5098914;28;20032;-75
2022/11/28 00:49:26;;;;;;;12.32;7.15;;;;;;;0.90;74.78;94384.19;5097886;28;20020;-75
2022/11/28 00:51:51;;;;;;;12.88;6.93;;;;;;;0.61;75.40;94368.56;5092389;28;20456;-76
2022/11/28 00:54:17;;;;;;;15.10;6.75;;;;;;;0.50;75.13;94316.28;5088415;28;20036;-77
2022/11/28 00:56:42;;;;;;;14.52;7.80;;;;;;;0.85;75.36;94384.09;5098575;28;20796;-74
2022/11/28 00:59:08;;;;;;;11.48;7.70;;;;;;;0.61;75.32;94331.91;5090225;28;20040;-77
2022/11/28 01:01:42;;;;;;;13.80;6.63;;;;;;;1.17;74.71;94382.50;5089473;28;20056;-76
2022/11/28 01:04:11;;;;;;;10.27;6.47;;;;;;;1.22;73.89;94386.00;5099710;28;20139;-76
2022/11/28 01:06:39;;;;;;;7.15;5.15;;;;;;;1.52;73.43;94382.97;5095097;28;20460;-77
2022/11/28 01:09:08;;;;;;;8.75;5.72;;;;;;;1.59;72.39;94380.19;5098813;28;20027;-76
2022/11/28 01:11:33;;;;;;;7.43;4.75;;;;;;;1.39;71.92;94349.25;5097154;28;20028;-77
2022/11/28 01:14:00;;;;;;;8.20;4.95;;;;;;;1.33;72.46;94375.63;5097063;28;20020;-77
2022/11/28 01:16:26;;;;;;;9.70;5.68;;;;;;;1.05;72.86;94339.88;5092731;28;20032;-76
2022/11/28 01:18:52;;;;;;;7.30;4.55;;;;;;;0.99;73.17;94352.13;5096191;28;20550;-75
2022/11/28 01:21:19;;;;;;;8.02;4.88;;;;;;;1.12;73.43;94364.09;5096901;28;20048;-74
2022/11/28 01:23:44;;;;;;;6.47;4.53;;;;;;;1.02;72.96;94343.78;5094495;28;20070;-74
2022/11/28 01:26:16;;;;;;;7.35;5.55;;;;;;;0.88;74.31;94354.84;5097418;28;20494;-74
2022/11/28 01:28:41;;;;;;;7.55;4.43;;;;;;;0.62;74.51;94317.00;5095695;28;20044;-74
2022/11/28 01:31:08;;;;;;;6.97;4.63;;;;;;;1.07;74.29;94371.88;5094963;28;20051;-76
2022/11/28 01:33:34;;;;;;;9.38;4.97;;;;;;;1.14;73.52;94354.16;5094999;28;20024;-74
2022/11/28 01:36:00;;;;;;;6.93;5.00;;;;;;;1.16;73.66;94365.19;5096549;28;20047;-75
2022/11/28 01:38:26;;;;;;;11.20;5.10;;;;;;;1.16;73.22;94339.00;5106544;28;20037;-75
2022/11/28 01:40:53;;;;;;;8.18;4.72;;;;;;;1.14;73.32;94359.41;5095989;28;20358;-74
2022/11/28 01:43:19;;;;;;;6.97;5.22;;;;;;;1.16;73.69;94357.34;5094646;28;20036;-74
2022/11/28 01:45:45;;;;;;;9.75;5.22;;;;;;;1.33;73.38;94350.22;5095264;28;20043;-75
2022/11/28 01:48:17;;;;;;;6.45;4.55;;;;;;;1.41;72.81;94351.66;5097136;28;20051;-74
2022/11/28 01:50:44;;;;;;;6.65;4.57;;;;;;;1.38;72.59;94358.16;5096109;28;20039;-75
2022/11/28 01:53:12;;;;;;;6.28;4.35;;;;;;;1.14;73.16;94338.44;5091527;28;20029;-74
2022/11/28 01:56:16;;;;;;;5.57;4.40;;;;;;;1.04;73.46;94335.69;5094730;28;20068;-74
2022/11/28 01:58:46;;;;;;;4.60;3.67;;;;;;;0.85;74.46;94348.25;5066055;28;20036;-74
2022/11/28 02:01:12;;;;;;;5.43;3.90;;;;;;;0.92;74.31;94345.47;5093028;28;20527;-74
2022/11/28 02:03:47;;;;;;;5.65;3.40;;;;;;;0.92;73.92;94327.13;5096261;28;20040;-75
2022/11/28 02:06:16;;;;;;;5.05;3.72;;;;;;;1.11;73.79;94324.00;5099098;28;20028;-75
2022/11/28 02:08:41;;;;;;;4.55;3.45;;;;;;;1.44;72.76;94343.28;5097807;28;20028;-75
2022/11/28 02:11:06;;;;;;;5.15;3.10;;;;;;;1.47;72.47;94345.44;5095533;28;20039;-75
2022/11/28 02:13:40;;;;;;;3.90;2.90;;;;;;;1.09;72.17;94270.25;5105938;28;20051;-75
2022/11/28 02:16:13;;;;;;;3.03;2.75;;;;;;;1.19;71.86;94275.63;5096445;28;20036;-75
2022/11/28 02:18:59;;;;;;;3.80;2.15;;;;;;;1.80;71.28;94336.66;5094870;28;20024;-76
2022/11/28 02:21:24;;;;;;;3.47;2.60;;;;;;;1.88;70.60;94333.59;5098509;28;20236;-74
2022/11/28 02:24:14;;;;;;;4.13;2.40;;;;;;;1.97;70.25;94335.56;5096454;28;20004;-77
2022/11/28 02:27:00;;;;;;;2.22;1.80;;;;;;;2.13;69.45;94333.88;5095516;28;20059;-77
2022/11/28 02:29:47;;;;;;;4.05;1.75;;;;;;;2.15;69.11;94341.50;5090323;28;20400;-74
2022/11/28 02:32:35;;;;;;;2.58;1.60;;;;;;;1.97;68.90;94303.28;5091608;28;20044;-76
2022/11/28 02:35:31;;;;;;;2.13;1.92;;;;;;;2.36;68.39;94338.81;5090184;28;20052;-75
2022/11/28 02:38:20;;;;;;;2.30;1.55;;;;;;;2.13;68.28;94333.88;5078484;28;20052;-74
2022/11/28 02:40:45;;;;;;;1.45;1.30;;;;;;;2.05;69.08;94336.97;5068181;28;20108;-75
2022/11/28 02:43:18;;;;;;;1.58;1.48;;;;;;;2.01;69.14;94330.63;5092278;28;20055;-73
2022/11/28 02:46:05;;;;;;;1.63;1.52;;;;;;;2.21;68.63;94340.50;5094986;28;20059;-77
2022/11/28 02:48:58;;;;;;;1.40;1.30;;;;;;;2.25;68.34;94331.91;5096465;28;20054;-76
2022/11/28 02:52:05;;;;;;;1.23;1.10;;;;;;;2.27;68.04;94340.31;5099523;28;20067;-76
2022/11/28 02:54:31;;;;;;;1.60;1.50;;;;;;;2.34;68.01;94335.66;5009738;28;20017;-77
2022/11/28 02:56:57;;;;;;;1.33;1.20;;;;;;;2.30;68.03;94333.78;5082145;28;20104;-77
2022/11/28 02:59:44;;;;;;;1.08;1.08;;;;;;;2.30;67.64;94333.78;5098142;28;20033;-76
2022/11/28 03:02:26;;;;;;;1.70;1.42;;;;;;;2.26;68.02;94337.94;5096074;28;20035;-77
2022/11/28 03:05:15;;;;;;;1.83;1.35;;;;;;;2.45;67.31;94339.94;5095520;28;20059;-75
2022/11/28 03:08:04;;;;;;;2.05;1.40;;;;;;;2.57;67.03;94344.25;5102034;28;20008;-76
2022/11/28 03:11:13;;;;;;;2.13;1.50;;;;;;;2.77;66.11;94334.72;5095549;28;20035;-75
2022/11/28 03:14:06;;;;;;;1.50;1.40;;;;;;;2.78;65.86;94343.38;5097066;28;20050;-76
2022/11/28 03:16:46;;;;;;;1.77;1.40;;;;;;;2.62;65.47;94315.41;5094343;28;20040;-76
2022/11/28 03:19:15;;;;;;;1.50;1.25;;;;;;;2.87;65.57;94342.66;5095768;28;20049;-75
2022/11/28 03:21:56;;;;;;;2.80;1.33;;;;;;;2.43;66.31;94347.28;5093123;28;20053;-75
2022/11/28 03:24:45;;;;;;;1.55;1.42;;;;;;;1.93;67.05;94287.25;5094020;28;20040;-75
2022/11/28 03:27:17;;;;;;;2.03;1.60;;;;;;;2.52;66.86;94345.78;5092822;28;20036;-76
2022/11/28 03:29:51;;;;;;;2.20;1.63;;;;;;;2.16;67.32;94333.38;5093710;28;20040;-75
2022/11/28 03:32:29;;;;;;;1.58;1.30;;;;;;;2.55;67.00;94341.09;5092122;28;20039;-76
2022/11/28 03:35:07;;;;;;;1.80;1.63;;;;;;;2.59;66.65;94336.94;5094604;28;20429;-75
2022/11/28 03:37:38;;;;;;;1.65;1.33;;;;;;;2.42;66.30;94327.31;5102175;28;20032;-76
2022/11/28 03:40:09;;;;;;;1.88;1.58;;;;;;;2.65;66.05;94343.78;5095127;28;20275;-76
2022/11/28 03:42:40;;;;;;;2.78;1.70;;;;;;;2.47;66.48;94331.84;5091038;28;20085;-75
2022/11/28 03:45:16;;;;;;;1.55;1.45;;;;;;;2.63;65.81;94330.13;5093384;28;20080;-75
2022/11/28 03:47:47;;;;;;;2.10;2.00;;;;;;;2.46;66.51;94333.66;5093627;28;20027;-74
2022/11/28 03:50:19;;;;;;;2.08;1.58;;;;;;;2.31;67.11;94336.16;5094446;28;20508;-75
2022/11/28 03:52:50;;;;;;;2.42;2.13;;;;;;;2.33;66.93;94334.06;5092363;28;20040;-75
2022/11/28 03:55:28;;;;;;;1.85;1.50;;;;;;;2.34;66.72;94319.91;5088136;28;20054;-77
2022/11/28 03:58:15;;;;;;;2.88;1.42;;;;;;;2.01;67.40;94314.88;5086538;28;20042;-74
2022/11/28 04:01:08;;;;;;;1.30;1.20;;;;;;;2.32;67.21;94334.31;5097115;28;20024;-76
2022/11/28 04:03:44;;;;;;;1.73;1.45;;;;;;;2.25;67.71;94337.16;5096407;28;20019;-75
2022/11/28 04:06:17;;;;;;;1.42;1.30;;;;;;;2.36;67.14;94330.94;5093981;28;20028;-76
2022/11/28 04:09:06;;;;;;;1.33;1.23;;;;;;;1.94;68.38;94309.03;5094169;28;20040;-77
2022/11/28 04:11:53;;;;;;;1.52;1.38;;;;;;;1.99;68.13;94314.31;5096977;28;20104;-77
2022/11/28 04:14:33;;;;;;;2.35;1.80;;;;;;;2.06;68.38;94323.56;5092969;28;20054;-75
2022/11/28 04:17:11;;;;;;;1.50;1.40;;;;;;;2.23;67.99;94328.72;5099636;28;20031;-77
2022/11/28 04:19:42;;;;;;;1.92;1.50;;;;;;;2.23;68.04;94328.72;5097927;28;20043;-76
2022/11/28 04:22:20;;;;;;;3.65;1.95;;;;;;;2.16;67.80;94311.63;5102458;28;20036;-76
2022/11/28 04:24:56;;;;;;;3.38;2.50;;;;;;;1.79;68.19;94300.97;5116046;28;20036;-77
2022/11/28 04:27:28;;;;;;;2.17;1.90;;;;;;;1.78;69.11;94328.22;5116724;28;20043;-76
2022/11/28 04:29:58;;;;;;;3.28;2.67;;;;;;;1.67;68.85;94304.50;5099884;28;20058;-78
2022/11/28 04:32:25;;;;;;;2.88;2.35;;;;;;;1.81;69.66;94344.28;5099538;28;20024;-75
2022/11/28 04:35:04;;;;;;;2.67;2.20;;;;;;;1.15;69.92;94264.06;5098783;28;20075;-76
2022/11/28 04:37:31;;;;;;;2.20;1.98;;;;;;;1.81;69.68;94341.66;5098491;28;20039;-76
2022/11/28 04:39:58;;;;;;;2.03;1.88;;;;;;;1.71;69.65;94327.63;5101621;28;20074;-76
2022/11/28 04:42:36;;;;;;;2.92;2.22;;;;;;;1.64;69.27;94325.97;5100749;28;20020;-75
2022/11/28 04:45:10;;;;;;;2.42;1.77;;;;;;;1.72;70.06;94348.34;5098405;28;20113;-76
2022/11/28 04:47:36;;;;;;;3.70;1.77;;;;;;;1.57;70.36;94321.97;5101315;28;20043;-76
2022/11/28 04:50:02;;;;;;;2.95;2.25;;;;;;;1.66;70.30;94355.38;5101866;28;20049;-77
2022/11/28 04:52:42;;;;;;;4.22;1.98;;;;;;;1.40;70.44;94326.47;5101301;28;20078;-76
2022/11/28 04:55:32;;;;;;;4.13;2.58;;;;;;;1.70;70.20;94355.69;5099223;28;20064;-76
2022/11/28 04:58:10;;;;;;;4.35;2.55;;;;;;;1.36;71.48;94357.63;5105662;28;20045;-76
2022/11/28 05:00:37;;;;;;;3.35;2.47;;;;;;;1.51;70.94;94363.06;5101689;28;20028;-77
2022/11/28 05:03:04;;;;;;;2.63;2.22;;;;;;;1.34;70.91;94345.78;5098973;28;20073;-76
2022/11/28 05:05:30;;;;;;;4.10;2.30;;;;;;;1.32;71.10;94332.94;5099696;28;20023;-76
2022/11/28 05:07:58;;;;;;;5.38;2.72;;;;;;;1.54;70.97;94359.94;5102046;28;20020;-76
2022/11/28 05:10:24;;;;;;;3.25;2.58;;;;;;;1.50;70.53;94330.00;5098820;28;20036;-76
2022/11/28 05:12:49;;;;;;;2.90;2.42;;;;;;;1.36;70.32;94292.09;5099379;28;20105;-76
2022/11/28 05:15:18;;;;;;;2.78;2.50;;;;;;;1.68;70.12;94339.38;5099789;28;20047;-76
2022/11/28 05:17:45;;;;;;;3.60;2.90;;;;;;;1.80;69.63;94345.31;5097463;28;20037;-76
2022/11/28 05:20:11;;;;;;;4.43;3.33;;;;;;;1.48;70.28;94354.88;5099407;28;20040;-77
2022/11/28 05:22:37;;;;;;;3.05;2.35;;;;;;;1.30;70.92;94332.38;5097702;28;20012;-76
2022/11/28 05:25:02;;;;;;;3.15;2.60;;;;;;;1.56;70.47;94350.03;5098519;28;20054;-76
2022/11/28 05:27:28;;;;;;;2.90;2.45;;;;;;;1.63;70.13;94326.22;5098752;28;20044;-76
2022/11/28 05:29:53;;;;;;;3.35;2.30;;;;;;;1.69;70.29;94348.84;5097338;28;20039;-75
2022/11/28 05:32:19;;;;;;;3.60;2.40;;;;;;;1.70;69.97;94344.41;5098412;28;20032;-76
2022/11/28 05:34:44;;;;;;;2.63;2.13;;;;;;;1.59;70.18;94346.09;5098069;28;20058;-77
2022/11/28 05:37:09;;;;;;;1.90;1.80;;;;;;;1.56;69.75;94329.03;5098689;28;20564;-76
2022/11/28 05:39:35;;;;;;;2.70;2.20;;;;;;;1.91;69.56;94346.25;5098421;28;20030;-76
2022/11/28 05:42:00;;;;;;;3.97;2.25;;;;;;;1.75;69.30;94336.59;5097794;28;20024;-76
2022/11/28 05:44:25;;;;;;;4.13;2.58;;;;;;;1.81;69.10;94349.53;5099850;28;20019;-76
2022/11/28 05:46:51;;;;;;;4.57;2.58;;;;;;;1.71;68.87;94330.25;5101428;28;20016;-76
2022/11/28 05:49:19;;;;;;;3.10;2.45;;;;;;;1.99;68.81;94343.19;5101373;28;20121;-75
2022/11/28 05:51:45;;;;;;;3.00;2.60;;;;;;;1.78;68.24;94315.91;5100315;28;20797;-75
2022/11/28 05:54:10;;;;;;;2.90;2.63;;;;;;;1.97;68.08;94332.13;5100701;28;20028;-76
2022/11/28 05:56:36;;;;;;;3.05;2.50;;;;;;;1.90;68.49;94329.72;5098979;28;20083;-76
2022/11/28 05:59:01;;;;;;;3.95;2.78;;;;;;;2.02;68.41;94343.47;5105439;28;20039;-75
2022/11/28 06:01:28;;;;;;;2.78;2.38;;;;;;;2.33;67.68;94341.94;5097805;28;20075;-77
2022/11/28 06:03:59;;;;;;;3.67;2.65;;;;;;;2.37;67.23;94345.66;5097624;28;20070;-76
2022/11/28 06:06:27;;;;;;;5.53;3.30;;;;;;;2.28;66.77;94341.91;5097289;28;20020;-76
2022/11/28 06:08:53;;;;;;;5.22;3.53;;;;;;;2.21;67.32;94343.94;5096169;28;20017;-77
2022/11/28 06:11:22;;;;;;;5.43;3.67;;;;;;;2.33;66.99;94339.31;5095307;28;20075;-77
2022/11/28 06:13:48;;;;;;;4.68;3.42;;;;;;;2.31;67.18;94346.66;5093386;28;20021;-77
2022/11/28 06:16:17;;;;;;;3.58;3.15;;;;;;;2.11;67.34;94312.34;5095142;28;20044;-74
2022/11/28 06:18:43;;;;;;;8.65;3.63;;;;;;;2.38;67.11;94341.22;5090933;28;20024;-76
2022/11/28 06:21:09;;;;;;;6.50;3.33;;;;;;;2.13;66.89;94312.09;5099669;28;20131;-75
2022/11/28 06:23:37;;;;;;;10.48;4.03;;;;;;;2.09;67.70;94340.66;5095720;28;20056;-76
2022/11/28 06:26:13;;;;;;;9.07;7.22;;;;;;;2.45;67.41;94342.56;5098423;28;20542;-76
2022/11/28 06:28:40;;;;;;;12.15;9.30;;;;;;;2.34;67.01;94343.53;5095102;28;20044;-75
2022/11/28 06:31:27;;;;;;;14.32;8.70;;;;;;;2.10;67.90;94339.63;5093518;28;20025;-76
2022/11/28 06:33:52;;;;;;;11.00;6.20;;;;;;;2.04;68.13;94336.16;5097145;28;20357;-75
2022/11/28 06:36:19;;;;;;;7.93;5.05;;;;;;;1.77;69.37;94342.38;5100166;28;20040;-77
2022/11/28 06:38:45;;;;;;;7.75;4.20;;;;;;;1.26;70.58;94306.91;5095769;28;20036;-76
2022/11/28 06:41:13;;;;;;;7.60;4.13;;;;;;;1.53;73.05;94326.91;5092183;28;20073;-76
2022/11/28 06:43:39;;;;;;;8.15;4.55;;;;;;;1.88;72.37;94331.78;5089363;28;20044;-77
2022/11/28 06:46:05;;;;;;;5.50;3.88;;;;;;;1.79;72.26;94335.06;5088609;28;20654;-77
2022/11/28 06:48:31;;;;;;;6.75;4.50;;;;;;;1.89;71.24;94303.72;5075970;28;20032;-77
2022/11/28 06:51:05;;;;;;;8.55;4.85;;;;;;;2.10;70.27;94331.75;5076745;28;20076;-77
2022/11/28 06:53:30;;;;;;;6.43;4.20;;;;;;;1.96;69.56;94318.22;5075919;28;20041;-76
2022/11/28 06:55:56;;;;;;;9.50;4.32;;;;;;;2.01;69.21;94314.88;5077260;28;20048;-77
2022/11/28 06:58:21;;;;;;;5.70;3.97;;;;;;;1.61;69.20;94292.41;5073659;28;20104;-77
2022/11/28 07:00:47;;;;;;;5.50;3.55;;;;;;;1.97;68.90;94314.56;5074368;28;20028;-78
2022/11/28 07:03:12;;;;;;;6.28;4.70;;;;;;;1.92;69.18;94329.44;5075057;28;20507;-78
2022/11/28 07:05:38;;;;;;;10.15;4.50;;;;;;;2.04;68.57;94319.63;5077697;28;20078;-75
2022/11/28 07:08:04;;;;;;;5.35;4.10;;;;;;;1.97;68.39;94326.88;5081404;28;20055;-77
2022/11/28 07:10:29;;;;;;;5.57;3.60;;;;;;;1.61;69.54;94326.47;5078189;28;20091;-75
2022/11/28 07:12:57;;;;;;;10.23;4.97;;;;;;;1.42;69.63;94291.13;5081844;28;20043;-77
2022/11/28 07:15:22;;;;;;;10.13;4.30;;;;;;;1.49;69.92;94281.22;5089049;28;20031;-77
2022/11/28 07:17:48;;;;;;;5.43;3.75;;;;;;;1.51;71.43;94322.94;5085771;28;20048;-77
2022/11/28 07:20:14;;;;;;;5.47;4.57;;;;;;;1.62;70.63;94327.25;5091332;28;20062;-77
2022/11/28 07:22:41;;;;;;;6.35;3.95;;;;;;;1.80;70.11;94318.28;5085284;28;20036;-77
2022/11/28 07:25:07;;;;;;;7.57;4.50;;;;;;;1.74;69.03;94319.25;5104761;28;20067;-77
2022/11/28 07:27:32;;;;;;;5.97;4.00;;;;;;;1.46;69.36;94313.19;5088219;28;20073;-76
2022/11/28 07:29:58;;;;;;;7.57;4.18;;;;;;;1.54;70.17;94320.63;5085218;28;20048;-77
2022/11/28 07:32:23;;;;;;;7.20;4.05;;;;;;;1.41;69.86;94304.47;5087655;28;20071;-75
2022/11/28 07:34:48;;;;;;;6.63;4.10;;;;;;;1.52;69.58;94312.19;5093302;28;20032;-76
2022/11/28 07:37:14;;;;;;;7.45;5.03;;;;;;;1.78;69.13;94320.34;5093900;28;20040;-76
2022/11/28 07:39:41;;;;;;;6.63;4.70;;;;;;;1.39;68.86;94260.16;5094791;28;20043;-75
2022/11/28 07:42:06;;;;;;;7.30;5.57;;;;;;;1.95;68.71;94332.41;5095067;28;20028;-76
2022/11/28 07:44:32;;;;;;;10.10;4.78;;;;;;;2.14;67.91;94318.94;5096401;28;20060;-78
2022/11/28 07:46:57;;;;;;;7.97;5.30;;;;;;;2.00;67.88;94323.78;5093479;28;20037;-76
2022/11/28 07:49:23;;;;;;;8.07;5.80;;;;;;;2.31;69.88;94330.09;5092931;28;20565;-76
2022/11/28 07:51:48;;;;;;;12.60;6.30;;;;;;;2.39;68.46;94306.84;5089183;28;20130;-76
2022/11/28 07:54:13;;;;;;;7.50;5.50;;;;;;;2.08;67.05;94278.72;5107561;28;20028;-76
2022/11/28 07:56:39;;;;;;;8.30;4.75;;;;;;;1.82;67.03;94253.25;5096571;28;20024;-77
2022/11/28 07:59:04;;;;;;;7.68;4.88;;;;;;;2.09;67.18;94294.22;5096168;28;20067;-76
2022/11/28 08:01:48;;;;;;;9.45;5.05;;;;;;;2.12;68.00;94315.75;5091149;28;20045;-76
2022/11/28 08:04:14;;;;;;;9.85;6.10;;;;;;;1.85;67.94;94311.28;5063940;28;20043;-78
2022/11/28 08:06:41;;;;;;;13.07;6.25;;;;;;;1.83;68.70;94291.56;5083116;28;20081;-77
2022/11/28 08:09:07;;;;;;;9.50;5.15;;;;;;;1.78;68.56;94309.88;5081629;28;20021;-76
2022/11/28 08:11:51;;;;;;;7.20;4.72;;;;;;;1.82;69.67;94324.06;5085517;28;20040;-76
2022/11/28 08:14:17;;;;;;;6.25;4.13;;;;;;;1.54;70.87;94322.44;5080342;28;20028;-77
2022/11/28 08:16:43;;;;;;;8.38;4.68;;;;;;;1.37;71.64;94303.38;5082627;28;20141;-76
2022/11/28 08:19:11;;;;;;;6.40;4.57;;;;;;;1.15;72.60;94301.53;5086534;28;20043;-76
2022/11/28 08:21:38;;;;;;;11.07;4.65;;;;;;;1.04;73.91;94320.75;5084147;28;20048;-76
2022/11/28 08:24:06;;;;;;;8.35;5.80;;;;;;;0.95;74.45;94319.59;5083882;28;20054;-78
2022/11/28 08:26:43;;;;;;;5.03;3.83;;;;;;;0.86;75.06;94318.41;5087205;28;20047;-78
2022/11/28 08:29:13;;;;;;;6.97;4.53;;;;;;;0.92;75.49;94316.66;5086018;28;20024;-77
2022/11/28 08:31:39;;;;;;;7.25;3.92;;;;;;;0.83;74.81;94325.97;5083272;28;20032;-77
2022/11/28 08:34:08;;;;;;;6.43;4.20;;;;;;;0.70;75.42;94316.59;5089010;28;20043;-75
2022/11/28 08:36:39;;;;;;;6.72;4.50;;;;;;;0.57;76.09;94320.34;5092488;28;20032;-77
2022/11/28 08:39:05;;;;;;;8.23;5.05;;;;;;;0.55;76.59;94316.34;5086202;28;20021;-77
2022/11/28 08:41:31;;;;;;;11.57;4.68;;;;;;;0.63;76.95;94313.34;5088564;28;20032;-77
2022/11/28 08:43:56;;;;;;;6.43;4.28;;;;;;;0.73;76.83;94303.84;5085720;28;20077;-77
2022/11/28 08:46:22;;;;;;;11.20;4.53;;;;;;;0.76;76.51;94307.78;5091646;28;20032;-78
2022/11/28 08:48:51;;;;;;;8.57;5.20;;;;;;;1.00;76.39;94305.75;5091946;28;20024;-77
2022/11/28 08:51:22;;;;;;;5.50;4.40;;;;;;;0.93;75.57;94303.34;5093226;28;20461;-76
2022/11/28 08:53:49;;;;;;;6.63;4.85;;;;;;;1.00;75.02;94303.16;5087292;28;20043;-78
2022/11/28 08:56:16;;;;;;;13.82;3.85;;;;;;;0.89;74.69;94293.59;5088442;28;20181;-76
2022/11/28 08:58:42;;;;;;;6.95;3.60;;;;;;;0.87;75.08;94309.53;5086005;28;20043;-77
2022/11/28 09:01:22;;;;;;;5.28;3.78;;;;;;;0.43;75.10;94247.63;5085397;28;20020;-77
2022/11/28 09:03:49;;;;;;;6.13;3.75;;;;;;;0.83;75.45;94292.72;5080167;28;20033;-77
2022/11/28 09:06:16;;;;;;;3.95;3.20;;;;;;;0.51;75.26;94250.63;5092916;28;20016;-78
2022/11/28 09:08:43;;;;;;;5.80;3.70;;;;;;;0.67;75.90;94273.38;5087526;28;20021;-77
2022/11/28 09:11:11;;;;;;;4.82;3.50;;;;;;;0.69;76.56;94281.75;5088832;28;20054;-77
2022/11/28 09:13:39;;;;;;;8.20;4.15;;;;;;;0.66;76.94;94271.78;5088236;28;20031;-78
2022/11/28 09:16:05;;;;;;;5.15;3.72;;;;;;;0.56;76.98;94266.41;5087229;28;20032;-77
2022/11/28 09:18:36;;;;;;;5.28;4.30;;;;;;;0.53;77.48;94264.28;5088504;28;20479;-76
2022/11/28 09:21:08;;;;;;;6.25;3.83;;;;;;;0.55;77.31;94274.47;5086865;28;20561;-76
2022/11/28 09:23:38;;;;;;;6.75;3.70;;;;;;;0.46;77.47;94266.25;5089129;28;20317;-76
2022/11/28 09:26:13;;;;;;;9.40;4.10;;;;;;;0.53;77.85;94269.50;5085434;28;20345;-76
2022/11/28 09:28:38;;;;;;;4.40;3.50;;;;;;;0.52;78.07;94265.28;5084242;28;20028;-75
2022/11/28 09:31:05;;;;;;;5.18;3.70;;;;;;;0.54;78.16;94257.22;5087233;28;20047;-76
2022/11/28 09:33:31;;;;;;;5.43;3.55;;;;;;;0.61;78.68;94247.34;5087856;28;20077;-75
2022/11/28 09:36:03;;;;;;;8.93;4.75;;;;;;;0.72;78.82;94244.66;5088442;28;20410;-76
2022/11/28 09:38:29;;;;;;;8.25;4.57;;;;;;;0.79;78.48;94229.53;5087655;28;20050;-76
2022/11/28 09:40:55;;;;;;;5.97;3.40;;;;;;;0.76;77.89;94227.41;5091629;28;20056;-77
2022/11/28 09:43:41;;;;;;;6.97;4.10;;;;;;;0.77;77.63;94236.06;5090116;28;20577;-78
2022/11/28 09:46:13;;;;;;;4.07;3.53;;;;;;;0.75;77.55;94212.72;5100147;28;20506;-78
2022/11/28 09:48:48;;;;;;;6.80;4.57;;;;;;;0.79;77.14;94211.22;5090167;28;20024;-77
2022/11/28 09:51:48;;;;;;;15.07;7.85;;;;;;;0.77;77.02;94228.22;5089070;28;20016;-76
2022/11/28 09:54:22;;;;;;;13.20;6.30;;;;;;;0.61;77.17;94189.75;5089667;28;20059;-76
2022/11/28 09:56:50;;;;;;;10.88;5.47;;;;;;;0.70;76.77;94202.19;5099895;28;20384;-77
2022/11/28 09:59:21;;;;;;;7.97;4.70;;;;;;;0.84;77.21;94212.34;5086740;28;20050;-77
2022/11/28 10:02:16;;;;;;;5.43;3.42;;;;;;;0.69;77.32;94190.13;5095829;28;20070;-77
2022/11/28 10:04:59;;;;;;;5.05;3.83;;;;;;;0.88;76.76;94210.81;5091076;28;20044;-77
2022/11/28 10:07:52;;;;;;;7.93;4.65;;;;;;;0.95;76.76;94217.44;5093535;28;20048;-77
2022/11/28 10:10:49;;;;;;;6.80;4.50;;;;;;;0.82;75.54;94169.88;5063952;28;20029;-77
2022/11/28 10:13:36;;;;;;;4.07;2.78;;;;;;;1.17;73.60;94212.22;5083839;28;20024;-77
2022/11/28 10:16:24;;;;;;;5.07;3.00;;;;;;;1.16;72.53;94197.53;5089900;28;20091;-76
2022/11/28 10:18:54;;;;;;;6.53;4.15;;;;;;;1.17;72.27;94199.13;5099614;28;20040;-76
2022/11/28 10:21:22;;;;;;;5.80;3.85;;;;;;;1.26;72.21;94215.19;5085705;28;20050;-76
2022/11/28 10:23:53;;;;;;;7.22;3.63;;;;;;;1.22;72.41;94186.06;5088079;28;20036;-77
2022/11/28 10:26:40;;;;;;;6.78;3.47;;;;;;;1.62;72.31;94201.41;5088455;28;20040;-77
2022/11/28 10:29:38;;;;;;;3.85;3.22;;;;;;;1.85;71.38;94203.75;5087155;28;20040;-77
2022/11/28 10:32:05;;;;;;;2.83;2.50;;;;;;;1.96;71.35;94181.03;5077165;28;20064;-76
2022/11/28 10:34:47;;;;;;;3.85;2.92;;;;;;;2.21;70.37;94167.28;5089660;28;20062;-75
2022/11/28 10:37:30;;;;;;;2.83;2.58;;;;;;;2.52;69.39;94185.63;5088066;28;20028;-76
2022/11/28 10:40:12;;;;;;;3.08;2.45;;;;;;;2.77;69.23;94179.72;5107838;28;20063;-76
2022/11/28 10:43:03;;;;;;;3.63;2.42;;;;;;;2.82;66.63;94179.75;5088785;28;20028;-76
2022/11/28 10:45:54;;;;;;;3.78;2.70;;;;;;;3.05;66.42;94173.28;5077455;28;20036;-77
2022/11/28 10:48:50;;;;;;;4.75;3.55;;;;;;;2.93;65.44;94164.84;5089048;28;20008;-77
2022/11/28 10:51:30;;;;;;;3.75;2.83;;;;;;;3.18;64.91;94178.09;5075709;28;20079;-77
2022/11/28 10:54:09;;;;;;;3.38;2.22;;;;;;;3.07;64.92;94179.09;5090028;28;20040;-76
2022/11/28 10:56:51;;;;;;;2.92;2.22;;;;;;;3.09;64.71;94169.09;5104794;28;20040;-77
2022/11/28 10:59:50;;;;;;;2.95;2.30;;;;;;;3.17;63.29;94171.22;5084032;28;20068;-77
2022/11/28 11:02:40;;;;;;;2.72;2.47;;;;;;;3.05;62.76;94165.41;5092813;28;20054;-77
2022/11/28 11:05:10;;;;;;;2.95;2.20;;;;;;;2.72;63.22;94161.31;5085770;28;20067;-76
2022/11/28 11:07:37;;;;;;;4.00;2.22;;;;;;;2.53;63.43;94173.31;5083929;28;20043;-75
2022/11/28 11:10:24;;;;;;;3.42;2.28;;;;;;;2.73;62.91;94168.16;5080526;28;20048;-77
2022/11/28 11:12:51;;;;;;;2.85;2.10;;;;;;;2.51;63.09;94147.28;5084915;28;20050;-77
2022/11/28 11:15:23;;;;;;;2.85;2.13;;;;;;;2.67;63.51;94157.88;5092867;28;20513;-77
2022/11/28 11:17:49;;;;;;;3.20;2.42;;;;;;;2.50;63.62;94153.56;5059653;28;20045;-76
2022/11/28 11:20:25;;;;;;;3.25;2.22;;;;;;;2.45;63.23;94152.78;4969442;28;20077;-77
2022/11/28 11:22:56;;;;;;;2.42;1.98;;;;;;;2.33;64.03;94129.34;4976420;28;20039;-76
2022/11/28 11:25:25;;;;;;;4.38;3.03;;;;;;;2.19;63.47;94124.78;4965704;28;20019;-76
2022/11/28 11:27:53;;;;;;;4.78;2.92;;;;;;;1.99;65.67;94117.56;4966380;28;20408;-77
2022/11/28 11:30:30;;;;;;;3.42;2.80;;;;;;;2.36;66.93;94139.31;4969101;28;20042;-76
2022/11/28 11:32:59;;;;;;;3.38;2.47;;;;;;;2.55;66.70;94131.81;4985736;28;20102;-76
2022/11/28 11:35:37;;;;;;;3.40;3.05;;;;;;;2.59;65.15;94116.34;4990095;28;20045;-76
2022/11/28 11:38:20;;;;;;;5.78;2.67;;;;;;;2.40;64.48;94124.63;4986932;28;20035;-77
2022/11/28 11:40:48;;;;;;;5.00;2.88;;;;;;;2.22;64.84;94109.31;4985408;28;20051;-77
2022/11/28 11:43:43;;;;;;;4.47;2.60;;;;;;;2.46;65.71;94117.59;4984375;28;20058;-77
2022/11/28 11:46:16;;;;;;;4.03;2.77;;;;;;;2.46;64.98;94120.22;4965143;28;20336;-77
2022/11/28 11:48:47;;;;;;;4.65;2.47;;;;;;;2.41;63.91;94118.34;4982426;28;21006;-77
2022/11/28 11:51:25;;;;;;;3.05;2.70;;;;;;;2.50;63.58;94114.19;4985562;28;20035;-77
2022/11/28 11:54:16;;;;;;;5.28;3.38;;;;;;;2.44;64.03;94119.69;4975226;28;20072;-77
2022/11/28 11:56:46;;;;;;;4.63;2.88;;;;;;;2.28;64.08;94121.44;5071123;28;20040;-77
2022/11/28 11:59:50;;;;;;;4.32;2.67;;;;;;;2.00;62.21;94104.22;5097376;28;20052;-78
2022/11/28 12:02:38;;;;;;;5.43;3.08;;;;;;;1.94;64.06;94089.47;5067110;28;20040;-77
2022/11/28 12:05:17;;;;;;;5.65;2.63;;;;;;;1.91;62.35;94097.06;5092767;28;20040;-77